createdAt,value
2022-08-29T00:02:22.243Z,4.63
2022-08-29T00:04:50.091Z,5.40
2022-08-29T00:07:17.992Z,4.57
2022-08-29T00:09:45.629Z,4.70
2022-08-29T00:12:14.757Z,5.50
2022-08-29T00:14:42.812Z,4.30
2022-08-29T00:17:10.463Z,5.67
2022-08-29T00:19:38.630Z,5.57
2022-08-29T00:22:06.307Z,4.63
2022-08-29T00:24:33.873Z,4.90
2022-08-29T00:27:01.916Z,4.90
2022-08-29T00:29:30.900Z,5.03
2022-08-29T00:31:58.796Z,4.63
2022-08-29T00:34:27.193Z,4.90
2022-08-29T00:36:54.927Z,5.43
2022-08-29T00:39:23.265Z,5.40
2022-08-29T00:41:51.767Z,4.90
2022-08-29T00:44:19.706Z,4.90
2022-08-29T00:46:51.591Z,4.47
2022-08-29T00:49:25.778Z,4.93
2022-08-29T00:51:53.942Z,5.07
2022-08-29T00:54:22.826Z,5.03
2022-08-29T00:56:50.804Z,5.40
2022-08-29T00:59:19.627Z,5.00
2022-08-29T01:01:47.524Z,4.83
2022-08-29T01:04:24.201Z,5.37
2022-08-29T01:06:52.755Z,4.57
2022-08-29T01:09:20.892Z,5.20
2022-08-29T01:12:06.895Z,5.37
2022-08-29T01:14:38.405Z,5.17
2022-08-29T01:17:07.604Z,4.90
2022-08-29T01:19:42.272Z,5.07
2022-08-29T01:22:14.546Z,5.13
2022-08-29T01:24:44.207Z,5.30
2022-08-29T01:27:12.207Z,4.77
2022-08-29T01:29:40.320Z,5.53
2022-08-29T01:32:08.089Z,5.30
2022-08-29T01:34:35.694Z,4.93
2022-08-29T01:37:05.573Z,5.07
2022-08-29T01:39:35.667Z,5.10
2022-08-29T01:42:07.481Z,5.00
2022-08-29T01:44:36.082Z,5.43
2022-08-29T01:47:04.178Z,5.30
2022-08-29T01:49:32.526Z,5.03
2022-08-29T01:52:00.303Z,5.30
2022-08-29T01:54:30.073Z,5.23
2022-08-29T01:56:57.728Z,5.50
2022-08-29T01:59:27.929Z,4.83
2022-08-29T02:01:58.330Z,4.80
2022-08-29T02:04:26.227Z,4.93
2022-08-29T02:06:55.599Z,4.73
2022-08-29T02:09:23.503Z,4.40
2022-08-29T02:11:54.323Z,5.77
2022-08-29T02:14:23.691Z,5.60
2022-08-29T02:16:52.732Z,5.40
2022-08-29T02:19:20.302Z,5.10
2022-08-29T02:21:51.618Z,5.20
2022-08-29T02:24:25.708Z,5.63
2022-08-29T02:26:55.578Z,4.97
2022-08-29T02:29:23.225Z,5.37
2022-08-29T02:31:51.487Z,4.70
2022-08-29T02:34:20.785Z,5.53
2022-08-29T02:36:49.063Z,5.80
2022-08-29T02:39:18.153Z,4.93
2022-08-29T02:41:46.232Z,5.60
2022-08-29T02:44:13.932Z,5.67
2022-08-29T02:46:41.699Z,5.80
2022-08-29T02:49:09.539Z,5.90
2022-08-29T02:51:38.940Z,5.83
2022-08-29T02:54:06.637Z,4.90
2022-08-29T02:56:34.459Z,5.70
2022-08-29T02:59:02.054Z,5.70
2022-08-29T03:01:31.248Z,5.37
2022-08-29T03:03:59.013Z,5.00
2022-08-29T03:06:26.906Z,5.50
2022-08-29T03:08:56.102Z,5.03
2022-08-29T03:11:24.035Z,5.40
2022-08-29T03:13:51.600Z,4.87
2022-08-29T03:16:25.946Z,4.90
2022-08-29T03:18:53.635Z,5.70
2022-08-29T03:21:22.668Z,5.10
2022-08-29T03:23:50.846Z,5.70
2022-08-29T03:26:20.426Z,5.10
2022-08-29T03:28:48.294Z,6.47
2022-08-29T03:31:16.596Z,5.40
2022-08-29T03:33:44.359Z,5.47
2022-08-29T03:36:14.198Z,5.70
2022-08-29T03:38:43.850Z,5.90
2022-08-29T03:41:11.528Z,5.37
2022-08-29T03:43:40.676Z,5.40
2022-08-29T03:46:08.295Z,5.60
2022-08-29T03:48:35.941Z,5.70
2022-08-29T03:51:03.901Z,5.97
2022-08-29T03:53:34.105Z,5.87
2022-08-29T03:56:01.924Z,6.40
2022-08-29T03:58:30.017Z,5.47
2022-08-29T04:00:59.210Z,5.77
2022-08-29T04:03:31.018Z,5.67
2022-08-29T04:05:59.673Z,6.60
2022-08-29T04:08:27.610Z,6.03
2022-08-29T04:10:55.185Z,6.50
2022-08-29T04:13:22.993Z,6.10
2022-08-29T04:16:15.469Z,5.70
2022-08-29T04:18:43.371Z,6.10
2022-08-29T04:21:11.115Z,5.80
2022-08-29T04:23:39.877Z,6.33
2022-08-29T04:26:35.579Z,5.43
2022-08-29T04:29:02.593Z,6.33
2022-08-29T04:31:31.681Z,6.40
2022-08-29T04:33:59.554Z,5.70
2022-08-29T04:36:28.243Z,6.10
2022-08-29T04:38:56.321Z,5.97
2022-08-29T04:41:24.078Z,6.23
2022-08-29T04:43:51.628Z,5.80
2022-08-29T04:46:24.426Z,6.50
2022-08-29T04:48:54.393Z,7.10
2022-08-29T04:51:22.857Z,6.30
2022-08-29T04:53:51.257Z,5.80
2022-08-29T04:56:18.907Z,5.80
2022-08-29T04:58:47.419Z,5.13
2022-08-29T05:01:15.969Z,5.60
2022-08-29T05:03:44.332Z,5.67
2022-08-29T05:06:14.977Z,5.50
2022-08-29T05:08:43.936Z,6.33
2022-08-29T05:11:12.612Z,5.70
2022-08-29T05:13:42.638Z,6.40
2022-08-29T05:16:12.032Z,6.47
2022-08-29T05:18:40.365Z,6.00
2022-08-29T05:21:08.083Z,6.43
2022-08-29T05:23:37.242Z,7.03
2022-08-29T05:26:06.178Z,6.70
2022-08-29T05:28:34.345Z,7.50
2022-08-29T05:31:02.236Z,7.97
2022-08-29T05:33:30.962Z,7.60
2022-08-29T05:35:59.267Z,8.23
2022-08-29T05:38:27.133Z,8.13
2022-08-29T05:40:56.387Z,8.50
2022-08-29T05:43:26.566Z,8.80
2022-08-29T05:46:02.238Z,8.90
2022-08-29T05:48:30.503Z,9.27
2022-08-29T05:50:58.318Z,8.70
2022-08-29T05:53:26.666Z,9.90
2022-08-29T05:55:54.276Z,9.20
2022-08-29T05:58:23.603Z,9.57
2022-08-29T06:00:51.576Z,8.17
2022-08-29T06:03:19.271Z,8.40
2022-08-29T06:05:51.595Z,7.40
2022-08-29T06:08:19.922Z,7.90
2022-08-29T06:10:48.018Z,7.80
2022-08-29T06:13:16.459Z,8.00
2022-08-29T06:15:46.073Z,8.60
2022-08-29T06:18:14.291Z,7.53
2022-08-29T06:20:42.504Z,7.50
2022-08-29T06:23:10.369Z,7.77
2022-08-29T06:25:39.715Z,9.10
2022-08-29T06:28:07.992Z,7.90
2022-08-29T06:30:35.811Z,7.17
2022-08-29T06:33:04.829Z,7.50
2022-08-29T06:35:32.331Z,7.50
2022-08-29T06:38:00.465Z,10.17
2022-08-29T06:40:28.078Z,11.30
2022-08-29T06:42:55.958Z,7.57
2022-08-29T06:45:23.779Z,7.33
2022-08-29T06:47:51.453Z,8.47
2022-08-29T06:50:20.352Z,8.20
2022-08-29T06:52:48.378Z,7.10
2022-08-29T06:55:16.442Z,8.40
2022-08-29T06:57:51.574Z,8.00
2022-08-29T07:00:22.583Z,6.70
2022-08-29T07:02:52.334Z,8.57
2022-08-29T07:05:22.473Z,8.20
2022-08-29T07:07:50.250Z,7.17
2022-08-29T07:10:22.263Z,7.40
2022-08-29T07:12:50.800Z,8.00
2022-08-29T07:15:18.741Z,7.17
2022-08-29T07:17:47.278Z,7.40
2022-08-29T07:20:15.208Z,7.93
2022-08-29T07:22:45.568Z,7.30
2022-08-29T07:25:13.201Z,7.37
2022-08-29T07:27:40.763Z,7.40
2022-08-29T07:30:09.089Z,7.80
2022-08-29T07:32:36.725Z,7.20
2022-08-29T07:35:04.613Z,7.70
2022-08-29T07:37:32.371Z,7.60
2022-08-29T07:40:01.588Z,7.23
2022-08-29T07:42:29.411Z,7.20
2022-08-29T07:44:57.535Z,6.63
2022-08-29T07:47:26.585Z,7.20
2022-08-29T07:49:54.264Z,7.70
2022-08-29T07:52:22.001Z,6.67
2022-08-29T07:54:49.651Z,7.17
2022-08-29T07:57:18.873Z,6.33
2022-08-29T07:59:47.024Z,6.63
2022-08-29T08:02:14.781Z,7.13
2022-08-29T08:04:42.525Z,7.00
2022-08-29T08:07:13.814Z,7.37
2022-08-29T08:09:42.031Z,6.80
2022-08-29T08:12:10.761Z,7.47
2022-08-29T08:14:40.170Z,7.37
2022-08-29T08:17:07.899Z,7.40
2022-08-29T08:19:35.572Z,6.77
2022-08-29T08:22:04.019Z,7.03
2022-08-29T08:24:32.719Z,7.73
2022-08-29T08:27:00.549Z,8.13
2022-08-29T08:29:28.256Z,6.83
2022-08-29T08:31:59.742Z,6.80
2022-08-29T08:34:29.560Z,7.20
2022-08-29T08:36:57.327Z,7.17
2022-08-29T08:39:25.199Z,7.17
2022-08-29T08:41:55.820Z,7.07
2022-08-29T08:44:42.003Z,7.20
2022-08-29T08:47:12.575Z,7.00
2022-08-29T08:49:45.169Z,8.13
2022-08-29T08:52:16.157Z,7.67
2022-08-29T08:54:47.345Z,7.87
2022-08-29T08:57:15.451Z,7.50
2022-08-29T08:59:45.813Z,7.80
2022-08-29T09:02:17.879Z,7.20
2022-08-29T09:04:54.090Z,6.97
2022-08-29T09:07:32.334Z,6.47
2022-08-29T09:10:08.047Z,6.30
2022-08-29T09:12:42.140Z,6.70
2022-08-29T09:15:14.278Z,7.10
2022-08-29T09:17:45.981Z,7.77
2022-08-29T09:20:15.578Z,7.17
2022-08-29T09:22:45.257Z,6.43
2022-08-29T09:25:13.999Z,6.50
2022-08-29T09:27:41.864Z,6.90
2022-08-29T09:30:14.893Z,7.83
2022-08-29T09:33:01.830Z,7.57
2022-08-29T09:35:31.505Z,7.10
2022-08-29T09:38:04.441Z,7.57
2022-08-29T09:40:43.956Z,5.80
2022-08-29T09:43:18.187Z,6.67
2022-08-29T09:46:00.743Z,7.13
2022-08-29T09:48:35.273Z,6.00
2022-08-29T09:51:10.570Z,6.47
2022-08-29T09:53:38.634Z,6.50
2022-08-29T09:56:07.703Z,6.60
2022-08-29T09:58:39.890Z,7.13
2022-08-29T10:01:11.670Z,6.70
2022-08-29T10:03:56.279Z,6.20
2022-08-29T10:06:32.545Z,6.03
2022-08-29T10:09:05.940Z,6.87
2022-08-29T10:11:36.425Z,7.07
2022-08-29T10:14:07.169Z,6.13
2022-08-29T10:16:44.569Z,6.53
2022-08-29T10:19:16.630Z,7.27
2022-08-29T10:21:49.319Z,5.93
2022-08-29T10:24:35.048Z,6.43
2022-08-29T10:27:07.457Z,7.00
2022-08-29T10:29:45.828Z,6.23
2022-08-29T10:32:18.859Z,6.40
2022-08-29T10:34:56.833Z,6.43
2022-08-29T10:37:29.502Z,6.00
2022-08-29T10:40:03.131Z,5.90
2022-08-29T10:42:31.500Z,6.80
2022-08-29T10:45:09.682Z,6.60
2022-08-29T10:47:40.039Z,6.30
2022-08-29T10:50:27.526Z,6.53
2022-08-29T10:53:04.725Z,6.53
2022-08-29T10:55:47.436Z,6.20
2022-08-29T10:58:21.757Z,6.80
2022-08-29T11:00:51.982Z,6.23
2022-08-29T11:03:23.907Z,6.43
2022-08-29T11:05:55.364Z,5.90
2022-08-29T11:08:27.148Z,6.50
2022-08-29T11:10:55.066Z,6.80
2022-08-29T11:13:25.865Z,6.83
2022-08-29T11:15:58.762Z,7.00
2022-08-29T11:18:29.604Z,6.90
2022-08-29T11:21:01.843Z,6.23
2022-08-29T11:23:33.597Z,6.97
2022-08-29T11:26:03.948Z,6.60
2022-08-29T11:28:36.046Z,6.27
2022-08-29T11:31:07.378Z,6.87
2022-08-29T11:33:38.939Z,6.67
2022-08-29T11:36:17.330Z,6.67
2022-08-29T11:38:50.683Z,6.60
2022-08-29T11:41:27.292Z,6.83
2022-08-29T11:43:58.482Z,6.20
2022-08-29T11:46:36.522Z,7.10
2022-08-29T11:49:26.657Z,7.10
2022-08-29T11:51:56.499Z,7.20
2022-08-29T11:54:42.930Z,6.50
2022-08-29T11:57:44.964Z,6.20
2022-08-29T12:02:54.889Z,5.80
2022-08-29T12:05:50.074Z,6.03
2022-08-29T12:08:37.198Z,6.07
2022-08-29T12:11:09.172Z,5.50
2022-08-29T12:13:58.202Z,5.13
2022-08-29T12:16:27.784Z,5.27
2022-08-29T12:18:56.031Z,5.17
2022-08-29T12:21:34.947Z,4.93
2022-08-29T12:24:04.978Z,5.37
2022-08-29T12:26:40.103Z,4.53
2022-08-29T12:29:10.422Z,5.60
2022-08-29T12:32:18.752Z,5.37
2022-08-29T12:34:52.730Z,5.73
2022-08-29T12:37:30.953Z,5.97
2022-08-29T12:40:16.343Z,5.97
2022-08-29T12:42:51.630Z,5.30
2022-08-29T12:45:23.903Z,5.10
2022-08-29T12:47:53.704Z,6.10
2022-08-29T12:50:22.919Z,5.53
2022-08-29T12:53:00.251Z,6.30
2022-08-29T12:55:29.279Z,6.13
2022-08-29T12:57:58.779Z,5.57
2022-08-29T13:00:29.865Z,6.10
2022-08-29T13:02:59.368Z,5.33
2022-08-29T13:05:29.153Z,5.57
2022-08-29T13:07:58.448Z,6.50
2022-08-29T13:10:26.111Z,5.30
2022-08-29T13:13:04.281Z,6.20
2022-08-29T13:15:33.892Z,9.00
2022-08-29T13:18:01.690Z,5.90
2022-08-29T13:20:51.370Z,6.67
2022-08-29T13:23:22.183Z,14.00
2022-08-29T13:25:59.225Z,6.30
2022-08-29T13:28:42.925Z,10.50
2022-08-29T13:31:25.113Z,7.90
2022-08-29T13:34:13.676Z,6.50
2022-08-29T13:36:45.133Z,8.40
2022-08-29T13:39:26.615Z,7.20
2022-08-29T13:42:12.585Z,6.10
2022-08-29T13:44:54.079Z,6.57
2022-08-29T13:47:24.432Z,5.50
2022-08-29T13:49:52.838Z,5.50
2022-08-29T13:52:20.670Z,7.13
2022-08-29T13:54:48.303Z,6.40
2022-08-29T13:57:19.400Z,6.93
2022-08-29T13:59:47.610Z,6.40
2022-08-29T14:02:15.552Z,5.70
2022-08-29T14:04:47.983Z,5.17
2022-08-29T14:07:17.883Z,5.57
2022-08-29T14:09:46.049Z,5.50
2022-08-29T14:12:14.800Z,5.30
2022-08-29T14:14:42.441Z,4.57
2022-08-29T14:17:10.421Z,4.80
2022-08-29T14:19:47.790Z,5.20
2022-08-29T14:22:15.419Z,6.83
2022-08-29T14:24:51.609Z,5.73
2022-08-29T14:27:19.686Z,5.90
2022-08-29T14:29:47.351Z,5.60
2022-08-29T14:32:15.359Z,5.30
2022-08-29T14:34:50.913Z,4.63
2022-08-29T14:37:20.961Z,7.33
2022-08-29T14:39:50.354Z,24.80
2022-08-29T14:42:18.744Z,12.03
2022-08-29T14:44:46.679Z,10.47
2022-08-29T14:47:14.381Z,21.23
2022-08-29T14:49:42.032Z,20.67
2022-08-29T14:52:12.012Z,25.10
2022-08-29T14:54:40.988Z,18.30
2022-08-29T14:57:08.687Z,12.73
2022-08-29T14:59:37.026Z,10.93
2022-08-29T15:02:04.709Z,9.63
2022-08-29T15:04:37.031Z,4.63
2022-08-29T15:07:09.727Z,4.03
2022-08-29T15:09:37.923Z,4.20
2022-08-29T15:12:07.258Z,5.30
2022-08-29T15:14:35.611Z,4.70
2022-08-29T15:17:03.560Z,5.23
2022-08-29T15:22:19.623Z,4.83
2022-08-29T15:24:47.852Z,4.30
2022-08-29T15:27:17.948Z,4.77
2022-08-29T15:29:45.875Z,5.00
2022-08-29T15:32:14.142Z,7.23
2022-08-29T15:34:42.263Z,5.43
2022-08-29T15:37:11.026Z,5.30
2022-08-29T15:39:39.167Z,4.23
2022-08-29T15:42:08.890Z,4.70
2022-08-29T15:44:38.045Z,5.43
2022-08-29T15:47:06.587Z,4.10
2022-08-29T15:49:39.535Z,3.80
2022-08-29T15:52:07.284Z,4.00
2022-08-29T15:54:36.027Z,4.00
2022-08-29T15:57:03.805Z,3.60
2022-08-29T15:59:56.504Z,4.20
2022-08-29T16:02:21.105Z,4.20
2022-08-29T16:04:54.754Z,5.07
2022-08-29T16:07:25.391Z,4.80
2022-08-29T16:09:57.592Z,3.57
2022-08-29T16:12:25.289Z,4.57
2022-08-29T16:15:01.316Z,3.50
2022-08-29T16:17:32.075Z,3.83
2022-08-29T16:20:00.343Z,3.80
2022-08-29T16:22:28.692Z,3.57
2022-08-29T16:24:56.670Z,3.27
2022-08-29T16:27:24.531Z,3.07
2022-08-29T16:29:53.209Z,3.17
2022-08-29T16:32:21.073Z,2.83
2022-08-29T16:34:50.799Z,3.17
2022-08-29T16:37:18.846Z,4.33
2022-08-29T16:39:46.922Z,3.80
2022-08-29T16:42:14.697Z,2.47
2022-08-29T16:44:42.585Z,2.80
2022-08-29T16:47:11.369Z,3.60
2022-08-29T16:49:39.221Z,3.90
2022-08-29T16:52:08.397Z,3.63
2022-08-29T16:54:36.827Z,3.40
2022-08-29T16:57:04.736Z,4.00
2022-08-29T16:59:35.729Z,3.10
2022-08-29T17:02:05.594Z,3.30
2022-08-29T17:04:33.591Z,3.33
2022-08-29T17:07:02.383Z,4.23
2022-08-29T17:09:30.806Z,3.13
2022-08-29T17:11:57.523Z,3.30
2022-08-29T17:14:28.976Z,2.97
2022-08-29T17:16:56.735Z,3.03
2022-08-29T17:19:24.417Z,5.73
2022-08-29T17:21:51.995Z,3.43
2022-08-29T17:24:19.753Z,3.00
2022-08-29T17:26:50.260Z,4.40
2022-08-29T17:29:18.230Z,3.97
2022-08-29T17:31:48.364Z,3.53
2022-08-29T17:34:16.422Z,3.73
2022-08-29T17:36:44.574Z,5.17
2022-08-29T17:39:12.563Z,5.73
2022-08-29T17:41:40.752Z,5.27
2022-08-29T17:44:12.009Z,5.90
2022-08-29T17:46:39.718Z,7.73
2022-08-29T17:49:10.241Z,8.50
2022-08-29T17:51:38.710Z,9.00
2022-08-29T17:54:08.545Z,7.30
2022-08-29T17:56:44.305Z,6.13
2022-08-29T17:59:14.297Z,5.73
2022-08-29T18:01:42.163Z,6.03
2022-08-29T18:04:09.870Z,7.00
2022-08-29T18:06:38.063Z,8.07
2022-08-29T18:09:06.265Z,8.97
2022-08-29T18:11:34.301Z,10.03
2022-08-29T18:14:02.048Z,10.50
2022-08-29T18:16:31.058Z,10.90
2022-08-29T18:18:58.951Z,10.67
2022-08-29T18:21:27.114Z,10.67
2022-08-29T18:23:55.243Z,9.30
2022-08-29T18:26:23.163Z,8.23
2022-08-29T18:28:50.791Z,8.70
2022-08-29T18:31:19.623Z,8.20
2022-08-29T18:34:04.176Z,9.30
2022-08-29T18:36:33.277Z,10.10
2022-08-29T18:39:01.975Z,12.73
2022-08-29T18:41:29.698Z,17.43
2022-08-29T18:43:59.172Z,13.00
2022-08-29T18:46:27.034Z,13.00
2022-08-29T18:48:56.184Z,11.90
2022-08-29T18:51:24.019Z,11.00
2022-08-29T18:53:51.544Z,11.83
2022-08-29T18:56:19.410Z,11.57
2022-08-29T18:58:47.838Z,11.37
2022-08-29T19:01:27.110Z,10.20
2022-08-29T19:03:58.279Z,10.93
2022-08-29T19:06:27.212Z,12.37
2022-08-29T19:08:55.185Z,14.00
2022-08-29T19:11:23.429Z,15.73
2022-08-29T19:13:52.488Z,15.83
2022-08-29T19:16:21.299Z,14.63
2022-08-29T19:18:51.174Z,14.63
2022-08-29T19:21:19.460Z,13.50
2022-08-29T19:23:52.425Z,13.40
2022-08-29T19:26:22.602Z,12.97
2022-08-29T19:28:52.170Z,14.33
2022-08-29T19:31:22.910Z,17.23
2022-08-29T19:33:51.061Z,16.57
2022-08-29T19:36:20.925Z,14.73
2022-08-29T19:41:35.614Z,16.90
2022-08-29T19:44:05.267Z,20.37
2022-08-29T19:46:33.368Z,13.87
2022-08-29T19:49:02.655Z,12.20
2022-08-29T19:51:33.770Z,11.37
2022-08-29T19:54:05.874Z,10.97
2022-08-29T19:56:34.147Z,11.30
2022-08-29T19:59:01.819Z,13.53
2022-08-29T20:01:29.839Z,22.67
2022-08-29T20:03:57.670Z,38.70
2022-08-29T20:06:25.878Z,11.43
2022-08-29T20:08:55.537Z,8.90
2022-08-29T20:11:25.293Z,19.80
2022-08-29T20:13:53.794Z,15.27
2022-08-29T20:16:23.116Z,7.10
2022-08-29T20:18:51.924Z,10.10
2022-08-29T20:21:19.966Z,11.80
2022-08-29T20:23:49.169Z,8.93
2022-08-29T20:26:20.115Z,8.97
2022-08-29T20:28:48.388Z,6.80
2022-08-29T20:31:16.275Z,5.47
2022-08-29T20:33:44.906Z,4.00
2022-08-29T20:36:29.419Z,4.60
2022-08-29T20:38:57.469Z,4.23
2022-08-29T20:41:27.917Z,4.30
2022-08-29T20:43:55.753Z,4.70
2022-08-29T20:46:23.528Z,5.03
2022-08-29T20:48:51.297Z,5.60
2022-08-29T20:51:18.910Z,4.80
2022-08-29T20:53:46.627Z,4.50
2022-08-29T20:56:14.167Z,4.13
2022-08-29T20:58:43.532Z,3.87
2022-08-29T21:01:11.458Z,4.20
2022-08-29T21:03:56.691Z,4.43
2022-08-29T21:06:24.322Z,4.10
2022-08-29T21:08:52.417Z,3.80
2022-08-29T21:11:20.911Z,8.27
2022-08-29T21:13:53.270Z,3.90
2022-08-29T21:16:22.152Z,4.90
2022-08-29T21:18:51.173Z,3.40
2022-08-29T21:21:20.359Z,3.57
2022-08-29T21:23:50.742Z,3.10
2022-08-29T21:26:18.825Z,3.00
2022-08-29T21:28:47.347Z,2.97
2022-08-29T21:31:16.911Z,3.43
2022-08-29T21:33:45.559Z,4.00
2022-08-29T21:36:13.323Z,3.37
2022-08-29T21:38:41.059Z,3.57
2022-08-29T21:41:09.466Z,3.07
2022-08-29T21:43:37.535Z,4.13
2022-08-29T21:46:13.818Z,3.67
2022-08-29T21:48:42.821Z,3.80
2022-08-29T21:51:10.990Z,4.07
2022-08-29T21:53:40.430Z,3.80
2022-08-29T21:56:09.443Z,5.03
2022-08-29T21:58:36.998Z,4.10
2022-08-29T22:01:04.872Z,4.33
2022-08-29T22:03:32.620Z,9.13
2022-08-29T22:06:01.658Z,5.97
2022-08-29T22:08:30.835Z,3.70
2022-08-29T22:11:00.327Z,4.87
2022-08-29T22:13:28.278Z,4.50
2022-08-29T22:16:13.877Z,4.80
2022-08-29T22:18:41.736Z,4.93
2022-08-29T22:21:15.179Z,5.87
2022-08-29T22:23:44.738Z,4.60
2022-08-29T22:26:12.713Z,4.30
2022-08-29T22:28:41.043Z,4.93
2022-08-29T22:31:08.747Z,4.33
2022-08-29T22:33:36.722Z,11.47
2022-08-29T22:36:05.285Z,16.00
2022-08-29T22:38:34.931Z,11.90
2022-08-29T22:41:04.478Z,10.00
2022-08-29T22:43:32.044Z,6.30
2022-08-29T22:45:59.940Z,11.27
2022-08-29T22:48:27.703Z,8.07
2022-08-29T22:50:58.391Z,8.53
2022-08-29T22:53:26.668Z,7.93
2022-08-29T22:55:55.573Z,7.37
2022-08-29T22:58:23.456Z,7.90
2022-08-29T23:00:51.242Z,16.37
2022-08-29T23:03:19.171Z,10.60
2022-08-29T23:05:48.943Z,7.70
2022-08-29T23:08:17.259Z,5.67
2022-08-29T23:10:49.048Z,6.67
2022-08-29T23:13:18.824Z,4.70
2022-08-29T23:15:46.580Z,6.17
2022-08-29T23:18:14.446Z,17.83
2022-08-29T23:20:42.182Z,6.50
2022-08-29T23:23:13.466Z,7.50
2022-08-29T23:25:41.017Z,12.30
2022-08-29T23:28:08.691Z,7.50
2022-08-29T23:30:37.602Z,6.67
2022-08-29T23:33:05.246Z,12.53
2022-08-29T23:35:33.738Z,6.90
2022-08-29T23:38:01.378Z,7.60
2022-08-29T23:40:29.032Z,6.63
2022-08-29T23:42:56.970Z,5.70
2022-08-29T23:45:24.714Z,5.77
2022-08-29T23:47:53.898Z,14.53
2022-08-29T23:50:21.675Z,6.20
2022-08-29T23:52:49.367Z,6.30
2022-08-29T23:55:17.329Z,10.43
2022-08-29T23:57:44.926Z,7.07
